Time;durP1;ratioP1;P1;durP2;ratioP2;P2;SDS_P1;SDS_P2;PMS_P1;PMS_P2;Temp;Humidity;BMP_temperature;BMP_pressure;BME280_temperature;BME280_humidity;BME280_pressure;Samples;Min_cycle;Max_cycle;Signal;HPM_P1;HPM_P2
2022/03/08 00:01:08;;;;;;;3.50;2.10;;;-2.10;99.90;;;;;;4938646;28;20828;-88
2022/03/08 00:03:35;;;;;;;4.87;2.50;;;-2.20;99.90;;;;;;4933559;29;20406;-88
2022/03/08 00:06:03;;;;;;;4.28;2.10;;;-2.20;99.90;;;;;;4933706;29;20413;-88
2022/03/08 00:08:31;;;;;;;2.43;1.77;;;-2.40;99.90;;;;;;4933711;29;20398;-88
2022/03/08 00:10:59;;;;;;;3.53;2.17;;;-2.30;99.90;;;;;;4917953;29;20486;-86
2022/03/08 00:13:27;;;;;;;4.07;2.20;;;-2.40;99.90;;;;;;4918029;29;20398;-87
2022/03/08 00:15:55;;;;;;;3.65;2.25;;;-2.60;99.90;;;;;;4931039;28;20411;-86
2022/03/08 00:18:23;;;;;;;3.55;2.13;;;-2.50;99.90;;;;;;4933488;29;20418;-87
2022/03/08 00:20:51;;;;;;;4.53;2.22;;;-2.60;99.90;;;;;;4917814;29;20971;-89
2022/03/08 00:23:19;;;;;;;2.93;1.57;;;-2.60;99.90;;;;;;4959918;28;20391;-88
2022/03/08 00:25:53;;;;;;;2.70;1.83;;;-2.60;99.90;;;;;;4973146;28;20507;-87
2022/03/08 00:28:22;;;;;;;3.67;2.17;;;-2.60;99.90;;;;;;4973652;28;20430;-87
2022/03/08 00:30:49;;;;;;;5.35;2.33;;;-2.70;99.90;;;;;;4956374;28;20813;-86
2022/03/08 00:33:17;;;;;;;3.03;1.70;;;-2.60;99.90;;;;;;4955967;28;20391;-88
2022/03/08 00:35:45;;;;;;;3.95;1.80;;;-2.60;99.90;;;;;;4955943;28;20894;-88
2022/03/08 00:38:13;;;;;;;4.00;2.17;;;-2.80;99.90;;;;;;4972822;28;20406;-88
2022/03/08 00:40:41;;;;;;;3.73;1.97;;;-2.70;99.90;;;;;;4955615;28;20407;-87
2022/03/08 00:43:08;;;;;;;3.10;2.08;;;-2.70;99.90;;;;;;4952071;28;20443;-87
2022/03/08 00:45:36;;;;;;;3.08;1.80;;;-2.70;99.90;;;;;;4937009;29;20396;-88
2022/03/08 00:48:05;;;;;;;4.45;2.08;;;-2.70;99.90;;;;;;4936613;29;20504;-86
2022/03/08 00:50:34;;;;;;;3.60;2.15;;;-2.70;99.90;;;;;;4936511;29;20774;-88
2022/03/08 00:53:02;;;;;;;4.70;2.30;;;-2.80;99.90;;;;;;4936404;29;20397;-88
2022/03/08 00:55:31;;;;;;;3.58;2.00;;;-2.80;99.90;;;;;;4943914;29;20844;-87
2022/03/08 00:57:59;;;;;;;4.20;2.30;;;-2.70;99.90;;;;;;4920757;29;20408;-87
2022/03/08 01:00:29;;;;;;;4.35;2.13;;;-2.70;99.90;;;;;;4952488;28;20436;-88
2022/03/08 01:02:57;;;;;;;3.67;2.20;;;-3.00;99.90;;;;;;4956930;29;20766;-87
2022/03/08 01:05:25;;;;;;;2.95;1.90;;;-3.10;99.90;;;;;;4939929;29;20918;-88
2022/03/08 01:07:53;;;;;;;4.05;2.40;;;-3.10;99.90;;;;;;4956038;29;20398;-87
2022/03/08 01:10:23;;;;;;;4.30;2.30;;;-3.00;99.90;;;;;;4939836;29;20529;-87
2022/03/08 01:12:53;;;;;;;3.33;2.13;;;-2.80;99.90;;;;;;4955471;29;20408;-87
2022/03/08 01:15:23;;;;;;;3.53;2.22;;;-3.00;99.90;;;;;;4939680;29;20411;-88
2022/03/08 01:17:52;;;;;;;2.92;1.95;;;-2.90;99.90;;;;;;4972307;28;20415;-88
2022/03/08 01:20:20;;;;;;;2.72;1.85;;;-3.00;99.90;;;;;;4974800;28;20465;-86
2022/03/08 01:22:49;;;;;;;3.50;1.93;;;-3.20;99.90;;;;;;4959079;28;20403;-88
2022/03/08 01:25:20;;;;;;;4.07;2.00;;;-3.30;99.90;;;;;;4958776;28;20468;-88
2022/03/08 01:27:50;;;;;;;3.80;2.03;;;-3.30;99.90;;;;;;4958724;28;20421;-87
2022/03/08 01:30:21;;;;;;;3.03;1.65;;;-3.20;99.90;;;;;;4974719;28;20447;-86
2022/03/08 01:32:50;;;;;;;3.65;2.00;;;-3.30;99.90;;;;;;4958831;28;20415;-87
2022/03/08 01:35:18;;;;;;;2.88;2.00;;;-3.40;99.90;;;;;;4974660;28;20422;-87
2022/03/08 01:37:46;;;;;;;3.67;2.22;;;-3.30;99.90;;;;;;4958715;28;20494;-87
2022/03/08 01:40:15;;;;;;;3.97;2.20;;;-3.30;99.90;;;;;;4958401;28;20403;-86
2022/03/08 01:42:48;;;;;;;4.15;2.08;;;-3.10;99.90;;;;;;4958419;28;20456;-88
2022/03/08 01:45:20;;;;;;;4.13;1.98;;;-3.20;99.90;;;;;;4958217;28;20967;-87
2022/03/08 01:47:48;;;;;;;3.95;2.60;;;-3.30;99.90;;;;;;4974564;28;20471;-87
2022/03/08 01:50:16;;;;;;;3.37;2.10;;;-3.30;99.90;;;;;;4958338;28;20418;-87
2022/03/08 01:52:43;;;;;;;4.47;2.67;;;-3.50;99.90;;;;;;4958289;28;20821;-88
2022/03/08 01:55:12;;;;;;;4.55;2.40;;;-3.50;99.90;;;;;;4942113;28;20422;-88
2022/03/08 01:57:41;;;;;;;4.28;2.60;;;-3.60;99.90;;;;;;4958112;28;20425;-87
2022/03/08 02:00:12;;;;;;;4.30;2.30;;;-3.80;99.90;;;;;;4958238;28;20403;-88
2022/03/08 02:02:41;;;;;;;3.65;2.10;;;-3.70;99.90;;;;;;4958091;28;20760;-88
2022/03/08 02:05:10;;;;;;;3.30;2.40;;;-3.70;99.90;;;;;;4974007;28;20808;-87
2022/03/08 02:07:38;;;;;;;3.85;2.50;;;-3.90;99.90;;;;;;4957816;28;20813;-87
2022/03/08 02:10:07;;;;;;;4.32;2.58;;;-3.90;99.90;;;;;;4957968;28;20494;-87
2022/03/08 02:12:36;;;;;;;3.85;2.38;;;-3.80;99.90;;;;;;4974059;28;20414;-88
2022/03/08 02:15:27;;;;;;;3.83;2.42;;;-4.00;99.90;;;;;;4957837;28;20772;-88
2022/03/08 02:17:58;;;;;;;4.43;2.72;;;-4.00;99.90;;;;;;4957700;28;20812;-87
2022/03/08 02:20:27;;;;;;;4.00;2.55;;;-3.80;99.90;;;;;;4957660;28;20410;-87
2022/03/08 02:22:54;;;;;;;4.55;2.55;;;-3.80;99.90;;;;;;4957882;28;20406;-88
2022/03/08 02:25:23;;;;;;;5.00;3.00;;;-3.90;99.90;;;;;;4974017;28;20469;-88
2022/03/08 02:27:53;;;;;;;3.83;2.50;;;-3.80;99.90;;;;;;4957537;28;20840;-88
2022/03/08 02:30:22;;;;;;;4.43;2.95;;;-3.90;99.90;;;;;;4957669;28;20414;-88
2022/03/08 02:32:51;;;;;;;3.50;2.42;;;-3.80;99.90;;;;;;4957344;28;20406;-87
2022/03/08 02:35:21;;;;;;;5.13;2.80;;;-3.70;99.90;;;;;;4957420;28;20433;-87
2022/03/08 02:37:53;;;;;;;3.92;2.80;;;-3.80;99.90;;;;;;4957339;28;20404;-88
2022/03/08 02:40:28;;;;;;;5.03;2.88;;;-3.70;99.90;;;;;;4973601;28;20435;-87
2022/03/08 02:42:55;;;;;;;4.13;2.42;;;-3.70;99.90;;;;;;4973327;28;20896;-86
2022/03/08 02:45:23;;;;;;;4.03;2.60;;;-3.90;99.90;;;;;;4957090;28;20396;-88
2022/03/08 02:47:51;;;;;;;3.63;2.40;;;-4.10;99.90;;;;;;4973427;28;20883;-88
2022/03/08 02:50:19;;;;;;;4.03;2.50;;;-4.00;99.90;;;;;;4957283;28;20792;-87
2022/03/08 02:52:51;;;;;;;3.05;2.20;;;-4.00;99.90;;;;;;4974311;28;20761;-88
2022/03/08 02:55:23;;;;;;;3.95;2.72;;;-4.00;99.90;;;;;;4974028;28;20418;-89
2022/03/08 02:57:52;;;;;;;4.63;2.30;;;-4.20;99.90;;;;;;4973162;28;20502;-88
2022/03/08 03:00:26;;;;;;;4.35;2.38;;;-4.30;99.90;;;;;;4956957;28;20881;-88
2022/03/08 03:02:54;;;;;;;3.22;2.25;;;-4.20;99.90;;;;;;4956965;28;20462;-87
2022/03/08 03:05:22;;;;;;;4.37;2.40;;;-4.10;99.90;;;;;;4957008;28;20450;-87
2022/03/08 03:07:50;;;;;;;3.87;2.37;;;-4.10;99.90;;;;;;4956776;28;20489;-87
2022/03/08 03:10:20;;;;;;;3.85;2.45;;;-4.20;99.90;;;;;;4956874;28;20399;-88
2022/03/08 03:12:48;;;;;;;5.18;2.75;;;-4.10;99.90;;;;;;4973019;28;20891;-88
2022/03/08 03:15:18;;;;;;;3.80;2.30;;;-4.10;99.90;;;;;;4957037;28;20410;-88
2022/03/08 03:17:46;;;;;;;3.60;2.30;;;-4.10;99.90;;;;;;4972780;28;20501;-87
2022/03/08 03:20:16;;;;;;;3.97;2.25;;;-4.20;99.90;;;;;;4972903;28;20398;-87
2022/03/08 03:22:45;;;;;;;4.80;2.97;;;-4.20;99.90;;;;;;4956906;28;20413;-87
2022/03/08 03:25:14;;;;;;;4.82;2.75;;;-4.30;99.90;;;;;;4972368;28;20390;-88
2022/03/08 03:27:43;;;;;;;5.35;2.92;;;-4.30;99.90;;;;;;4956972;28;20458;-87
2022/03/08 03:30:14;;;;;;;4.70;2.80;;;-4.30;99.90;;;;;;4972573;28;20896;-88
2022/03/08 03:32:42;;;;;;;4.70;2.58;;;-4.30;99.90;;;;;;4972679;28;20835;-88
2022/03/08 03:35:10;;;;;;;5.07;2.60;;;-4.40;99.90;;;;;;4956376;28;20405;-86
2022/03/08 03:37:38;;;;;;;5.03;2.88;;;-4.30;99.90;;;;;;4972449;28;20421;-87
2022/03/08 03:40:07;;;;;;;5.05;2.60;;;-4.30;99.90;;;;;;4956394;28;20465;-89
2022/03/08 03:42:35;;;;;;;4.72;2.85;;;-4.20;99.90;;;;;;4972523;28;20399;-89
2022/03/08 03:45:04;;;;;;;4.30;2.88;;;-4.40;99.90;;;;;;4972359;28;20386;-89
2022/03/08 03:47:32;;;;;;;3.67;2.63;;;-4.40;99.90;;;;;;4956388;28;20461;-88
2022/03/08 03:49:59;;;;;;;3.88;2.30;;;-4.30;99.90;;;;;;4972473;28;20801;-89
2022/03/08 03:52:27;;;;;;;4.20;2.30;;;-4.30;99.90;;;;;;4956362;28;20403;-89
2022/03/08 03:54:54;;;;;;;4.47;2.92;;;-4.50;99.90;;;;;;4938193;28;20423;-88
2022/03/08 03:57:22;;;;;;;4.35;2.63;;;-4.50;99.90;;;;;;4937251;29;20416;-88
2022/03/08 03:59:50;;;;;;;6.07;3.20;;;-4.50;99.90;;;;;;4899170;29;20480;-86
2022/03/08 04:02:17;;;;;;;4.28;2.70;;;-4.50;99.90;;;;;;4931197;29;20419;-88
2022/03/08 04:04:45;;;;;;;4.90;2.90;;;-4.50;99.90;;;;;;4946834;29;20401;-87
2022/03/08 04:07:12;;;;;;;4.03;2.67;;;-4.50;99.90;;;;;;4933908;29;20900;-89
2022/03/08 04:09:40;;;;;;;5.15;2.90;;;-4.60;99.90;;;;;;4933976;29;20425;-88
2022/03/08 04:12:08;;;;;;;4.72;2.63;;;-4.70;99.90;;;;;;4933825;29;20442;-89
2022/03/08 04:14:35;;;;;;;5.60;2.50;;;-4.70;99.90;;;;;;4933618;29;20433;-89
2022/03/08 04:17:04;;;;;;;3.78;2.25;;;-4.70;99.90;;;;;;4933721;29;20402;-89
2022/03/08 04:19:31;;;;;;;4.38;2.30;;;-4.80;99.90;;;;;;4949513;29;20439;-89
2022/03/08 04:21:59;;;;;;;3.40;2.17;;;-4.80;99.90;;;;;;4933782;29;20394;-89
2022/03/08 04:24:27;;;;;;;3.58;2.50;;;-4.90;99.90;;;;;;4933671;29;20394;-89
2022/03/08 04:26:54;;;;;;;4.53;2.65;;;-4.90;99.90;;;;;;4949400;29;20401;-87
2022/03/08 04:29:22;;;;;;;4.33;2.63;;;-5.00;99.90;;;;;;4933716;29;20406;-89
2022/03/08 04:31:49;;;;;;;4.15;2.55;;;-5.00;99.90;;;;;;4933750;29;20393;-88
2022/03/08 04:34:17;;;;;;;4.78;2.63;;;-5.10;99.90;;;;;;4949544;29;20830;-88
2022/03/08 04:36:45;;;;;;;3.37;2.10;;;-5.10;99.90;;;;;;4935543;29;20430;-89
2022/03/08 04:39:12;;;;;;;4.28;2.58;;;-5.10;99.90;;;;;;4953112;29;20410;-89
2022/03/08 04:41:41;;;;;;;4.55;2.40;;;-5.10;99.90;;;;;;4937211;29;20398;-88
2022/03/08 04:44:09;;;;;;;4.00;2.70;;;-5.10;99.90;;;;;;4937143;29;20398;-88
2022/03/08 04:46:42;;;;;;;3.90;2.40;;;-5.20;99.90;;;;;;4952726;28;20501;-88
2022/03/08 04:49:10;;;;;;;5.97;2.70;;;-5.20;99.90;;;;;;4960759;28;20408;-89
2022/03/08 04:51:38;;;;;;;6.00;2.83;;;-5.30;99.90;;;;;;4955904;29;20422;-87
2022/03/08 04:54:05;;;;;;;3.80;2.13;;;-5.30;99.90;;;;;;4971913;28;20396;-88
2022/03/08 04:56:33;;;;;;;3.60;2.47;;;-5.40;99.90;;;;;;4956027;29;20408;-89
2022/03/08 04:59:01;;;;;;;4.22;2.55;;;-5.40;99.90;;;;;;4963562;28;20932;-88
2022/03/08 05:01:28;;;;;;;4.90;2.20;;;-5.40;99.90;;;;;;4936433;29;20408;-88
2022/03/08 05:03:56;;;;;;;3.88;2.25;;;-5.50;99.90;;;;;;4950860;28;20411;-88
2022/03/08 05:06:26;;;;;;;4.13;2.63;;;-5.50;99.90;;;;;;4949415;29;20766;-88
2022/03/08 05:08:53;;;;;;;4.45;2.40;;;-5.50;99.90;;;;;;4933360;29;20901;-88
2022/03/08 05:11:21;;;;;;;3.70;2.15;;;-5.50;99.90;;;;;;4933418;29;20909;-88
2022/03/08 05:13:48;;;;;;;5.18;2.65;;;-5.50;99.90;;;;;;4922081;29;20466;-87
2022/03/08 05:16:16;;;;;;;4.00;2.10;;;-5.80;99.90;;;;;;4926083;29;20418;-89
2022/03/08 05:18:43;;;;;;;4.63;2.60;;;-5.70;99.90;;;;;;4952370;29;20420;-90
2022/03/08 05:21:11;;;;;;;3.33;2.28;;;-5.70;99.90;;;;;;4938092;29;20401;-89
2022/03/08 05:23:38;;;;;;;5.45;3.10;;;-5.60;99.90;;;;;;4952550;29;20414;-89
2022/03/08 05:26:06;;;;;;;3.50;2.30;;;-5.60;99.90;;;;;;4952282;29;20409;-88
2022/03/08 05:28:33;;;;;;;5.00;2.60;;;-5.70;99.90;;;;;;4952145;29;20410;-88
2022/03/08 05:31:01;;;;;;;3.72;2.22;;;-5.90;99.90;;;;;;4922362;29;20408;-88
2022/03/08 05:33:28;;;;;;;5.70;2.65;;;-5.80;99.90;;;;;;4917487;29;20411;-89
2022/03/08 05:35:56;;;;;;;5.15;2.63;;;-5.80;99.90;;;;;;4932901;29;20408;-89
2022/03/08 05:38:24;;;;;;;3.85;2.60;;;-5.80;99.90;;;;;;4932845;29;20412;-88
2022/03/08 05:40:52;;;;;;;4.05;2.42;;;-5.70;99.90;;;;;;4933002;29;20981;-88
2022/03/08 05:43:19;;;;;;;5.38;2.60;;;-5.80;99.90;;;;;;4917181;29;20400;-89
2022/03/08 05:45:47;;;;;;;4.30;2.33;;;-5.80;99.90;;;;;;4932765;29;20404;-89
2022/03/08 05:48:14;;;;;;;4.38;2.22;;;-5.90;99.90;;;;;;4916717;29;20407;-89
2022/03/08 05:50:42;;;;;;;5.05;2.25;;;-6.00;99.90;;;;;;4932263;29;20483;-89
2022/03/08 05:53:10;;;;;;;7.50;2.60;;;-5.80;99.90;;;;;;4947926;28;20998;-89
2022/03/08 05:55:37;;;;;;;4.38;2.35;;;-5.80;99.90;;;;;;4952155;29;20471;-88
2022/03/08 05:58:05;;;;;;;3.45;2.10;;;-5.80;99.90;;;;;;4938533;29;20463;-89
2022/03/08 06:00:32;;;;;;;4.70;2.20;;;-5.90;99.90;;;;;;4937043;29;20635;-88
2022/03/08 06:03:00;;;;;;;3.95;2.03;;;-5.90;99.90;;;;;;4937366;29;20423;-89
2022/03/08 06:05:28;;;;;;;4.38;2.20;;;-6.00;99.90;;;;;;4934856;29;20416;-88
2022/03/08 06:07:55;;;;;;;3.20;1.58;;;-6.00;99.90;;;;;;4921818;29;20440;-87
2022/03/08 06:10:24;;;;;;;4.72;2.20;;;-5.90;99.90;;;;;;4955238;29;20396;-90
2022/03/08 06:12:51;;;;;;;2.70;1.70;;;-5.90;99.90;;;;;;4954605;28;20412;-89
2022/03/08 06:15:19;;;;;;;4.35;2.30;;;-6.00;99.90;;;;;;4953059;28;20415;-88
2022/03/08 06:17:46;;;;;;;5.03;2.20;;;-5.90;99.90;;;;;;4938831;29;20938;-88
2022/03/08 06:20:14;;;;;;;3.80;2.10;;;-5.80;99.90;;;;;;4952892;29;20408;-89
2022/03/08 06:22:41;;;;;;;4.25;2.60;;;-5.70;99.90;;;;;;4938430;29;20548;-88
2022/03/08 06:25:09;;;;;;;4.30;2.25;;;-5.60;99.90;;;;;;4938701;29;20921;-88
2022/03/08 06:27:37;;;;;;;3.70;2.20;;;-5.60;99.90;;;;;;4948450;29;20414;-89
2022/03/08 06:30:05;;;;;;;3.35;1.95;;;-5.50;99.90;;;;;;4922359;29;20401;-89
2022/03/08 06:32:33;;;;;;;2.80;1.60;;;-5.50;99.90;;;;;;4938984;29;20414;-89
2022/03/08 06:35:00;;;;;;;4.65;2.28;;;-5.50;99.90;;;;;;4922668;29;20473;-90
2022/03/08 06:37:28;;;;;;;4.80;2.28;;;-5.50;99.90;;;;;;4936062;29;20400;-87
2022/03/08 06:39:55;;;;;;;4.82;1.95;;;-5.40;99.90;;;;;;4934826;29;20576;-89
2022/03/08 06:42:23;;;;;;;3.00;1.80;;;-5.40;99.90;;;;;;4919165;29;20492;-89
2022/03/08 06:44:51;;;;;;;3.60;1.80;;;-5.30;99.90;;;;;;4934981;29;20406;-89
2022/03/08 06:47:18;;;;;;;3.90;1.70;;;-5.40;99.90;;;;;;4919183;29;20517;-90
2022/03/08 06:49:46;;;;;;;3.22;1.63;;;-5.50;99.90;;;;;;4921921;29;20418;-89
2022/03/08 06:52:14;;;;;;;2.78;1.70;;;-5.40;99.90;;;;;;4957009;28;20404;-90
2022/03/08 06:54:41;;;;;;;4.40;1.85;;;-5.50;99.90;;;;;;4937525;29;20898;-89
2022/03/08 06:57:09;;;;;;;4.25;2.10;;;-5.40;99.90;;;;;;4918613;29;20417;-90
2022/03/08 06:59:37;;;;;;;4.10;2.10;;;-5.30;99.90;;;;;;4940059;29;20405;-88
2022/03/08 07:02:04;;;;;;;4.78;2.00;;;-5.30;99.90;;;;;;4937681;29;20392;-89
2022/03/08 07:04:32;;;;;;;4.45;1.98;;;-5.40;99.90;;;;;;4953970;29;20403;-88
2022/03/08 07:07:00;;;;;;;5.07;2.10;;;-5.40;99.90;;;;;;4934168;29;20429;-89
2022/03/08 07:09:29;;;;;;;3.88;2.10;;;-5.40;99.90;;;;;;4953809;29;20455;-89
2022/03/08 07:11:56;;;;;;;4.97;2.37;;;-5.40;99.90;;;;;;4953589;29;20396;-89
2022/03/08 07:14:24;;;;;;;7.47;2.80;;;-5.40;99.90;;;;;;4937721;29;20406;-89
2022/03/08 07:16:51;;;;;;;4.97;2.80;;;-5.20;99.90;;;;;;4937714;29;20408;-89
2022/03/08 07:19:19;;;;;;;4.85;2.33;;;-5.20;99.90;;;;;;4937517;29;20416;-89
2022/03/08 07:21:47;;;;;;;5.03;2.70;;;-5.20;99.90;;;;;;4937553;29;20894;-90
2022/03/08 07:24:15;;;;;;;5.28;2.20;;;-5.30;99.90;;;;;;4937508;29;20419;-89
2022/03/08 07:26:43;;;;;;;5.30;2.80;;;-5.40;99.90;;;;;;4953194;29;20483;-88
2022/03/08 07:29:10;;;;;;;4.07;2.23;;;-5.40;99.90;;;;;;4953536;28;20762;-88
2022/03/08 07:31:38;;;;;;;4.22;1.90;;;-5.30;99.90;;;;;;4930262;29;20472;-89
2022/03/08 07:34:05;;;;;;;4.97;2.25;;;-5.40;99.90;;;;;;4934202;29;20402;-89
2022/03/08 07:36:34;;;;;;;4.85;2.10;;;-5.30;99.90;;;;;;4940936;29;20747;-89
2022/03/08 07:39:01;;;;;;;5.95;2.20;;;-5.20;99.90;;;;;;4935049;29;20502;-89
2022/03/08 07:41:29;;;;;;;3.08;1.80;;;-5.10;99.90;;;;;;4935661;29;20434;-90
2022/03/08 07:43:56;;;;;;;4.85;1.95;;;-5.00;99.90;;;;;;4923158;29;20540;-89
2022/03/08 07:46:24;;;;;;;3.43;1.40;;;-5.00;99.90;;;;;;4937129;29;20448;-90
2022/03/08 07:48:52;;;;;;;4.82;1.85;;;-5.10;99.90;;;;;;4953178;29;20424;-89
2022/03/08 07:51:39;;;;;;;2.73;1.57;;;-5.10;99.90;;;;;;4939656;29;20479;-88
2022/03/08 07:54:07;;;;;;;3.38;1.65;;;-5.10;99.90;;;;;;4952662;28;20415;-88
2022/03/08 07:56:34;;;;;;;2.60;1.50;;;-5.00;99.90;;;;;;4936931;29;20428;-88
2022/03/08 07:59:01;;;;;;;3.33;1.70;;;-5.10;99.90;;;;;;4954002;29;20404;-89
2022/03/08 08:01:29;;;;;;;3.53;2.00;;;-5.10;99.90;;;;;;4952572;29;20903;-88
2022/03/08 08:03:57;;;;;;;2.95;1.42;;;-5.00;99.90;;;;;;4934676;29;20434;-91
2022/03/08 08:06:24;;;;;;;2.70;1.60;;;-4.90;99.90;;;;;;4933852;29;20400;-87
2022/03/08 08:08:52;;;;;;;4.32;2.25;;;-4.90;99.90;;;;;;4934596;29;20451;-89
2022/03/08 08:11:20;;;;;;;4.70;2.20;;;-4.80;99.90;;;;;;4955826;28;20414;-88
2022/03/08 08:13:51;;;;;;;2.90;1.50;;;-4.70;99.90;;;;;;4956956;29;20423;-87
2022/03/08 08:16:19;;;;;;;4.05;1.67;;;-4.60;99.90;;;;;;4956639;29;20411;-89
2022/03/08 08:18:47;;;;;;;2.85;1.77;;;-4.70;99.90;;;;;;4924855;29;20451;-89
2022/03/08 08:21:14;;;;;;;5.57;2.28;;;-4.70;99.90;;;;;;4957681;29;20405;-89
2022/03/08 08:23:42;;;;;;;4.60;2.00;;;-4.70;99.90;;;;;;4956544;29;20385;-86
2022/03/08 08:26:09;;;;;;;3.88;1.90;;;-4.70;99.90;;;;;;4940615;29;20400;-89
2022/03/08 08:28:37;;;;;;;3.72;1.80;;;-4.60;99.90;;;;;;4956470;28;20400;-87
2022/03/08 08:31:04;;;;;;;4.07;1.77;;;-4.60;99.90;;;;;;4941096;29;20845;-89
2022/03/08 08:33:33;;;;;;;3.33;1.60;;;-4.50;99.90;;;;;;4935229;29;20404;-91
2022/03/08 08:36:01;;;;;;;3.97;2.00;;;-4.60;99.90;;;;;;4940255;29;20411;-88
2022/03/08 08:38:29;;;;;;;5.25;2.05;;;-4.60;99.90;;;;;;4940167;28;20414;-89
2022/03/08 08:40:56;;;;;;;4.05;1.90;;;-4.50;99.90;;;;;;4945444;29;20397;-89
2022/03/08 08:43:25;;;;;;;3.90;1.77;;;-4.50;99.90;;;;;;4937864;29;20457;-88
2022/03/08 08:45:53;;;;;;;3.67;1.75;;;-4.50;99.90;;;;;;4934354;29;20407;-89
2022/03/08 08:48:21;;;;;;;3.03;1.50;;;-4.70;99.90;;;;;;4921477;29;20452;-89
2022/03/08 08:50:49;;;;;;;3.40;1.60;;;-4.70;99.90;;;;;;4921157;29;20409;-89
2022/03/08 08:53:17;;;;;;;2.78;1.42;;;-4.70;99.90;;;;;;4937049;29;20394;-87
2022/03/08 08:55:45;;;;;;;3.20;1.42;;;-4.70;99.90;;;;;;4937573;29;20410;-89
2022/03/08 08:58:12;;;;;;;3.45;1.40;;;-4.70;99.90;;;;;;4953898;29;20401;-89
2022/03/08 09:00:40;;;;;;;3.88;1.55;;;-4.70;99.90;;;;;;4957170;28;20910;-90
2022/03/08 09:03:14;;;;;;;2.95;1.50;;;-4.70;99.90;;;;;;4970459;28;20403;-89
2022/03/08 09:05:48;;;;;;;3.28;1.40;;;-4.70;99.90;;;;;;4922425;29;20430;-88
2022/03/08 09:08:16;;;;;;;3.00;1.60;;;-4.70;99.90;;;;;;4921049;29;20455;-89
2022/03/08 09:10:43;;;;;;;2.47;1.30;;;-4.70;99.90;;;;;;4920867;29;20394;-90
2022/03/08 09:13:11;;;;;;;2.43;1.30;;;-4.60;99.90;;;;;;4936771;29;20883;-89
2022/03/08 09:15:38;;;;;;;3.17;1.52;;;-4.60;99.90;;;;;;4940889;29;20400;-90
2022/03/08 09:18:07;;;;;;;3.50;1.60;;;-4.50;99.90;;;;;;4955250;28;20400;-88
2022/03/08 09:20:40;;;;;;;2.80;1.30;;;-4.50;99.90;;;;;;4939847;29;20408;-89
2022/03/08 09:23:08;;;;;;;2.42;1.33;;;-4.50;99.90;;;;;;4956234;28;20433;-87
2022/03/08 09:25:37;;;;;;;2.28;1.40;;;-4.40;99.90;;;;;;4939551;29;20447;-86
2022/03/08 09:28:07;;;;;;;2.90;1.55;;;-4.30;99.90;;;;;;4939945;29;20389;-87
2022/03/08 09:30:36;;;;;;;3.10;1.57;;;-4.20;99.90;;;;;;4955758;29;20403;-88
2022/03/08 09:33:04;;;;;;;4.35;1.70;;;-4.20;99.90;;;;;;4955684;29;20406;-87
2022/03/08 09:35:32;;;;;;;4.25;1.42;;;-4.20;99.90;;;;;;4934476;29;20803;-88
2022/03/08 09:37:59;;;;;;;2.55;1.30;;;-4.10;99.90;;;;;;4936296;29;20409;-87
2022/03/08 09:40:27;;;;;;;3.03;1.60;;;-4.10;99.90;;;;;;4936834;28;20472;-86
2022/03/08 09:42:54;;;;;;;2.63;1.50;;;-4.00;99.90;;;;;;4938351;29;20740;-86
2022/03/08 09:45:22;;;;;;;3.50;1.60;;;-3.90;99.90;;;;;;4948144;28;20416;-87
2022/03/08 09:47:50;;;;;;;3.63;1.50;;;-4.00;99.90;;;;;;4951897;29;20390;-87
2022/03/08 09:50:18;;;;;;;3.05;1.40;;;-3.90;99.90;;;;;;4953277;28;20408;-89
2022/03/08 09:52:47;;;;;;;3.10;1.40;;;-3.90;99.90;;;;;;4951310;28;20916;-89
2022/03/08 09:55:16;;;;;;;2.40;1.20;;;-3.90;99.90;;;;;;4951912;28;20405;-89
2022/03/08 09:57:46;;;;;;;3.63;1.48;;;-3.90;99.90;;;;;;4951720;29;20413;-88
2022/03/08 10:00:14;;;;;;;5.25;1.55;;;-3.90;99.90;;;;;;4951536;29;20976;-90
2022/03/08 10:02:51;;;;;;;4.68;1.42;;;-3.80;99.90;;;;;;4951601;29;20416;-90
2022/03/08 10:05:25;;;;;;;3.57;1.30;;;-3.70;99.90;;;;;;4951508;29;20398;-89
2022/03/08 10:08:13;;;;;;;2.40;1.08;;;-3.60;99.90;;;;;;4937058;29;20402;-88
2022/03/08 10:11:09;;;;;;;7.63;1.50;;;-3.50;99.90;;;;;;4935182;29;20760;-90
2022/03/08 10:13:53;;;;;;;2.20;1.20;;;-3.50;99.90;;;;;;4934651;29;20894;-88
2022/03/08 10:16:23;;;;;;;3.30;1.20;;;-3.40;99.90;;;;;;4951061;29;20398;-88
2022/03/08 10:18:54;;;;;;;8.88;1.60;;;-3.30;99.90;;;;;;4935281;29;20920;-89
2022/03/08 10:21:42;;;;;;;3.97;1.55;;;-3.30;99.90;;;;;;4934719;29;20939;-87
2022/03/08 10:24:19;;;;;;;3.50;1.20;;;-3.10;99.90;;;;;;4948481;28;20502;-86
2022/03/08 10:26:55;;;;;;;2.13;1.30;;;-3.00;99.90;;;;;;4951348;29;20873;-88
2022/03/08 10:29:23;;;;;;;2.42;1.45;;;-2.90;99.90;;;;;;4951638;29;20964;-88
2022/03/08 10:32:08;;;;;;;2.88;1.30;;;-2.90;99.90;;;;;;4924049;29;20410;-90
2022/03/08 10:34:37;;;;;;;2.42;1.30;;;-2.80;99.90;;;;;;4934187;29;20437;-86
2022/03/08 10:37:12;;;;;;;2.53;1.50;;;-2.70;99.90;;;;;;4950909;29;20465;-89
2022/03/08 10:39:50;;;;;;;3.45;1.15;;;-2.70;99.90;;;;;;4936202;29;20427;-85
2022/03/08 10:42:24;;;;;;;2.92;1.20;;;-2.50;99.90;;;;;;4931454;29;20447;-87
2022/03/08 10:45:04;;;;;;;2.72;1.30;;;-2.50;99.90;;;;;;4938077;29;20458;-86
2022/03/08 10:47:53;;;;;;;2.80;1.50;;;-2.50;99.90;;;;;;4933584;29;20413;-85
2022/03/08 10:50:23;;;;;;;4.80;1.40;;;-2.50;99.90;;;;;;4945562;28;20414;-87
2022/03/08 10:52:56;;;;;;;3.15;1.25;;;-2.50;99.90;;;;;;4934896;29;20511;-89
2022/03/08 10:55:29;;;;;;;2.90;1.23;;;-2.50;99.90;;;;;;4949654;28;20424;-87
2022/03/08 10:58:00;;;;;;;3.08;1.13;;;-2.50;99.90;;;;;;4944461;29;20469;-87
2022/03/08 11:00:30;;;;;;;2.30;1.13;;;-2.70;99.90;;;;;;4950651;29;20425;-87
2022/03/08 11:03:09;;;;;;;3.83;1.03;;;-2.60;99.90;;;;;;4935032;29;20406;-86
2022/03/08 11:05:44;;;;;;;3.45;1.20;;;-2.60;99.90;;;;;;4933043;29;20400;-88
2022/03/08 11:08:13;;;;;;;4.72;1.70;;;-2.60;99.90;;;;;;4946767;29;20502;-88
2022/03/08 11:10:41;;;;;;;3.60;1.80;;;-2.60;99.90;;;;;;4952968;28;20423;-88
2022/03/08 11:13:10;;;;;;;4.38;1.50;;;-2.60;99.90;;;;;;4953840;29;20459;-88
2022/03/08 11:15:39;;;;;;;2.83;1.45;;;-2.60;99.90;;;;;;4956696;28;20410;-88
2022/03/08 11:18:12;;;;;;;3.72;1.30;;;-2.60;99.90;;;;;;4933820;29;20429;-87
2022/03/08 11:20:42;;;;;;;3.20;1.38;;;-2.60;99.90;;;;;;4926204;29;20900;-89
2022/03/08 11:23:11;;;;;;;3.20;1.53;;;-2.50;99.90;;;;;;4918163;29;20411;-88
2022/03/08 11:25:41;;;;;;;3.15;1.90;;;-2.60;99.90;;;;;;4931400;29;20746;-86
2022/03/08 11:28:26;;;;;;;3.45;1.65;;;-2.70;99.90;;;;;;4931060;29;20410;-87
2022/03/08 11:30:56;;;;;;;3.45;1.45;;;-2.50;99.90;;;;;;4919711;29;20838;-87
2022/03/08 11:33:38;;;;;;;4.35;1.70;;;-2.50;99.90;;;;;;4942439;29;20444;-88
2022/03/08 11:36:38;;;;;;;3.47;1.50;;;-2.50;99.90;;;;;;4950190;29;20466;-88
2022/03/08 11:39:12;;;;;;;2.42;1.15;;;-2.50;99.90;;;;;;4949768;29;20424;-86
2022/03/08 11:41:40;;;;;;;3.33;1.30;;;-2.50;99.90;;;;;;4925234;29;20934;-86
2022/03/08 11:44:18;;;;;;;2.47;1.20;;;-2.40;99.90;;;;;;4946773;29;20495;-89
2022/03/08 11:47:15;;;;;;;2.30;1.30;;;-2.40;99.90;;;;;;4931110;29;20559;-87
2022/03/08 11:49:55;;;;;;;5.60;1.80;;;-2.40;99.90;;;;;;4948790;29;20857;-90
2022/03/08 11:52:30;;;;;;;3.03;1.70;;;-2.40;99.90;;;;;;4933967;29;20402;-87
2022/03/08 11:55:03;;;;;;;4.95;1.70;;;-2.40;99.90;;;;;;4943563;28;20425;-88
2022/03/08 11:57:48;;;;;;;3.30;1.50;;;-2.40;99.90;;;;;;4945308;29;20812;-90
2022/03/08 12:00:40;;;;;;;4.50;2.55;;;-2.40;99.90;;;;;;4930662;29;20407;-88
2022/03/08 12:03:33;;;;;;;3.63;1.80;;;-2.30;99.90;;;;;;4930845;29;20403;-89
2022/03/08 12:06:06;;;;;;;3.13;1.70;;;-2.30;99.90;;;;;;4946584;29;20440;-90
2022/03/08 12:08:35;;;;;;;3.80;2.00;;;-2.20;99.90;;;;;;4930581;29;20392;-89
2022/03/08 12:11:27;;;;;;;5.70;2.30;;;-2.20;99.90;;;;;;4930637;29;20491;-90
2022/03/08 12:14:19;;;;;;;5.05;2.70;;;-2.10;99.90;;;;;;4927907;29;20404;-89
2022/03/08 12:16:49;;;;;;;4.95;2.60;;;-2.10;99.90;;;;;;4930892;29;20763;-91
2022/03/08 12:19:54;;;;;;;4.15;2.05;;;-2.00;99.90;;;;;;4930806;29;20514;-90
2022/03/08 12:22:23;;;;;;;3.95;2.22;;;-2.00;99.90;;;;;;4917769;29;20414;-89
2022/03/08 12:24:56;;;;;;;4.25;1.80;;;-2.00;99.90;;;;;;4915730;29;20399;-91
2022/03/08 12:27:47;;;;;;;3.08;1.60;;;-2.00;99.90;;;;;;4930385;29;20411;-91
2022/03/08 12:30:15;;;;;;;3.75;1.70;;;-2.00;99.90;;;;;;4937694;29;20421;-89
2022/03/08 12:32:43;;;;;;;3.30;1.50;;;-2.10;99.90;;;;;;4926219;29;20427;-90
2022/03/08 12:35:22;;;;;;;2.75;1.70;;;-2.10;99.90;;;;;;4930578;29;20399;-89
2022/03/08 12:38:04;;;;;;;3.17;1.50;;;-2.10;99.90;;;;;;4930611;29;20846;-90
2022/03/08 12:40:37;;;;;;;3.00;1.60;;;-2.10;99.90;;;;;;4942303;29;20419;-89
2022/03/08 12:43:08;;;;;;;4.28;1.80;;;-2.10;99.90;;;;;;4927583;29;20419;-90
2022/03/08 12:45:44;;;;;;;3.40;1.63;;;-2.20;99.90;;;;;;4949395;29;20390;-90
2022/03/08 12:48:17;;;;;;;4.32;1.75;;;-2.20;99.90;;;;;;4936147;29;21055;-90
2022/03/08 12:50:47;;;;;;;5.03;1.70;;;-2.20;99.90;;;;;;4914672;29;20404;-90
2022/03/08 12:53:24;;;;;;;3.53;1.58;;;-2.20;99.90;;;;;;4898920;29;20408;-90
2022/03/08 12:56:01;;;;;;;2.83;1.60;;;-2.20;99.90;;;;;;4923094;29;20450;-89
2022/03/08 12:58:37;;;;;;;4.88;1.70;;;-2.30;99.90;;;;;;4932570;29;20431;-90
2022/03/08 13:01:07;;;;;;;3.60;1.63;;;-2.30;99.90;;;;;;4928463;29;20422;-90
2022/03/08 13:03:41;;;;;;;3.92;1.50;;;-2.30;99.90;;;;;;4922370;29;20421;-89